Time;durP1;ratioP1;P1;durP2;ratioP2;P2;SDS_P1;SDS_P2;PMS_P1;PMS_P2;Temp;Humidity;BMP_temperature;BMP_pressure;BME280_temperature;BME280_humidity;BME280_pressure;Samples;Min_cycle;Max_cycle;Signal;HPM_P1;HPM_P2
2024/01/28 00:01:57;;;;;;;12.90;3.40;;;;;;;5.41;76.23;102199.92;129982;1258;114769;-63
2024/01/28 00:04:59;;;;;;;9.90;2.80;;;;;;;5.39;76.24;102198.33;130142;1257;114741;-63
2024/01/28 00:08:01;;;;;;;13.60;3.50;;;;;;;5.36;76.44;102201.51;129695;1264;114822;-63
2024/01/28 00:11:03;;;;;;;10.40;3.30;;;;;;;5.33;76.20;102204.68;129888;1253;115391;-64
2024/01/28 00:14:05;;;;;;;12.10;2.70;;;;;;;5.30;76.36;102201.30;130149;1257;114697;-64
2024/01/28 00:17:08;;;;;;;12.90;2.80;;;;;;;5.30;76.43;102201.66;130155;1259;114728;-63
2024/01/28 00:20:10;;;;;;;9.90;3.00;;;;;;;5.29;76.47;102201.32;129959;1254;128525;-64
2024/01/28 00:23:12;;;;;;;11.30;3.60;;;;;;;5.28;76.55;102198.83;130102;1257;114709;-63
2024/01/28 00:26:15;;;;;;;10.30;2.90;;;;;;;5.28;76.74;102201.30;129900;1257;114756;-63
2024/01/28 00:29:17;;;;;;;12.20;3.10;;;;;;;5.26;76.57;102196.86;130039;1253;116449;-63
2024/01/28 00:32:19;;;;;;;10.90;3.10;;;;;;;5.23;76.52;102194.91;130043;1253;114757;-63
2024/01/28 00:35:21;;;;;;;11.30;3.20;;;;;;;5.22;76.65;102191.19;129953;1260;114792;-64
2024/01/28 00:38:23;;;;;;;10.30;3.70;;;;;;;5.21;76.67;102192.43;130139;1276;114729;-63
2024/01/28 00:41:28;;;;;;;13.20;3.80;;;;;;;5.19;76.69;102193.67;129938;1277;128449;-63
2024/01/28 00:44:31;;;;;;;10.00;3.30;;;;;;;5.18;76.91;102192.05;129825;1263;114803;-63
2024/01/28 00:47:33;;;;;;;12.50;3.80;;;;;;;5.16;76.76;102189.04;130004;1253;114709;-63
2024/01/28 00:50:40;;;;;;;10.30;4.60;;;;;;;5.15;76.81;102184.79;129967;1254;114763;-62
2024/01/28 00:53:42;;;;;;;11.80;3.60;;;;;;;5.13;76.88;102180.17;129960;1277;114645;-62
2024/01/28 00:56:44;;;;;;;10.40;3.90;;;;;;;5.11;76.99;102182.65;130087;1277;114757;-62
2024/01/28 00:59:46;;;;;;;9.60;3.00;;;;;;;5.10;76.91;102187.25;130028;1258;114709;-64
2024/01/28 01:02:48;;;;;;;12.50;4.00;;;;;;;5.08;77.03;102192.73;130080;1277;114729;-63
2024/01/28 01:05:51;;;;;;;12.40;3.50;;;;;;;5.07;77.10;102196.44;130067;1277;114779;-63
2024/01/28 01:08:53;;;;;;;10.10;2.90;;;;;;;5.05;76.91;102197.85;130251;1254;114731;-63
2024/01/28 01:11:55;;;;;;;9.30;2.80;;;;;;;5.04;76.98;102198.04;130232;1257;114708;-64
2024/01/28 01:14:57;;;;;;;11.70;4.10;;;;;;;5.04;77.18;102193.08;130163;1257;115135;-63
2024/01/28 01:17:59;;;;;;;6.70;2.60;;;;;;;5.03;77.17;102195.20;130014;1258;114733;-63
2024/01/28 01:21:02;;;;;;;12.50;3.40;;;;;;;5.03;77.37;102192.73;130335;1254;114770;-65
2024/01/28 01:24:04;;;;;;;11.40;3.60;;;;;;;5.05;77.20;102190.95;130021;1260;114706;-64
2024/01/28 01:27:07;;;;;;;12.80;3.10;;;;;;;5.05;77.30;102194.31;130039;1257;114896;-63
2024/01/28 01:30:10;;;;;;;10.10;3.30;;;;;;;5.05;77.34;102195.56;130130;1257;115215;-63
2024/01/28 01:33:12;;;;;;;13.60;3.20;;;;;;;5.05;77.34;102188.46;130015;1277;114758;-63
2024/01/28 01:36:15;;;;;;;10.40;3.90;;;;;;;5.05;77.34;102181.02;129932;1254;114791;-62
2024/01/28 01:39:17;;;;;;;11.70;3.00;;;;;;;5.05;77.20;102181.39;129605;1277;128535;-63
2024/01/28 01:42:20;;;;;;;11.70;3.40;;;;;;;5.04;77.37;102184.05;129933;1277;115189;-63
2024/01/28 01:45:22;;;;;;;11.80;3.00;;;;;;;5.01;77.31;102180.67;130015;1254;115039;-62
2024/01/28 01:48:24;;;;;;;7.80;3.00;;;;;;;4.96;77.10;102179.58;129977;1257;115348;-63
2024/01/28 01:51:27;;;;;;;11.80;3.90;;;;;;;4.92;77.07;102173.19;129636;1259;115176;-63
2024/01/28 01:54:29;;;;;;;11.50;3.90;;;;;;;4.89;77.37;102172.48;129828;1253;114801;-62
2024/01/28 01:57:31;;;;;;;12.30;2.80;;;;;;;4.86;77.30;102166.80;130091;1258;114766;-64
2024/01/28 02:00:34;;;;;;;13.30;3.30;;;;;;;4.82;77.40;102166.60;129994;1253;127818;-63
2024/01/28 02:03:36;;;;;;;12.10;3.60;;;;;;;4.77;77.20;102170.12;130047;1257;114728;-63
2024/01/28 02:06:38;;;;;;;8.10;2.70;;;;;;;4.72;77.27;102174.52;130009;1253;114786;-63
2024/01/28 02:09:41;;;;;;;11.50;2.60;;;;;;;4.67;77.25;102180.69;130109;1257;114654;-63
2024/01/28 02:12:49;;;;;;;9.50;3.10;;;;;;;4.64;77.39;102188.63;129723;1261;116453;-63
2024/01/28 02:15:51;;;;;;;10.10;3.10;;;;;;;4.61;77.49;102192.33;129859;1254;115409;-62
2024/01/28 02:18:53;;;;;;;11.70;3.10;;;;;;;4.56;77.46;102194.96;129923;1253;115023;-62
2024/01/28 02:21:55;;;;;;;9.80;3.30;;;;;;;4.52;77.58;102202.55;130017;1254;114795;-63
2024/01/28 02:24:57;;;;;;;12.10;2.60;;;;;;;4.49;77.75;102200.93;129788;1254;114854;-63
2024/01/28 02:27:59;;;;;;;8.40;2.50;;;;;;;4.46;77.60;102206.05;130114;1256;114773;-62
2024/01/28 02:31:01;;;;;;;9.40;4.00;;;;;;;4.43;77.69;102204.61;129990;1256;115132;-61
2024/01/28 02:34:04;;;;;;;15.90;3.90;;;;;;;4.38;77.80;102205.64;129573;1258;114885;-62
2024/01/28 02:37:06;;;;;;;11.90;3.20;;;;;;;4.35;77.78;102200.66;129967;1258;114801;-61
2024/01/28 02:40:09;;;;;;;8.60;2.70;;;;;;;4.30;77.76;102201.34;129979;1254;114802;-62
2024/01/28 02:43:11;;;;;;;11.70;2.60;;;;;;;4.26;77.73;102197.41;130029;1277;128753;-63
2024/01/28 02:46:14;;;;;;;9.10;3.10;;;;;;;4.24;77.84;102194.73;129877;1259;115167;-62
2024/01/28 02:49:17;;;;;;;11.50;3.90;;;;;;;4.19;77.79;102200.90;130126;1254;114793;-63
2024/01/28 02:52:19;;;;;;;8.20;3.00;;;;;;;4.15;77.80;102211.11;129972;1256;114731;-62
2024/01/28 02:55:21;;;;;;;12.10;3.20;;;;;;;4.10;77.92;102219.02;130065;1257;114750;-63
2024/01/28 02:58:23;;;;;;;11.10;3.50;;;;;;;4.05;77.85;102226.60;130022;1254;114674;-63
2024/01/28 03:01:25;;;;;;;11.50;2.70;;;;;;;3.99;77.95;102226.73;129867;1258;115227;-62
2024/01/28 03:04:27;;;;;;;11.50;2.80;;;;;;;3.94;78.02;102229.52;130019;1257;114702;-62
2024/01/28 03:07:29;;;;;;;11.30;2.70;;;;;;;3.91;78.25;102234.42;129722;1259;116456;-63
2024/01/28 03:10:31;;;;;;;8.70;3.00;;;;;;;3.87;78.23;102234.92;129828;1277;114645;-63
2024/01/28 03:13:33;;;;;;;12.20;2.80;;;;;;;3.83;78.13;102237.89;130161;1257;114886;-62
2024/01/28 03:16:35;;;;;;;10.90;2.60;;;;;;;3.79;78.24;102236.44;129929;1254;114712;-62
2024/01/28 03:19:37;;;;;;;8.90;2.80;;;;;;;3.76;78.31;102225.09;129907;1273;115023;-62
2024/01/28 03:22:39;;;;;;;15.50;3.10;;;;;;;3.71;78.28;102228.59;130137;1253;114707;-62
2024/01/28 03:25:41;;;;;;;11.70;3.10;;;;;;;3.66;78.36;102231.54;129857;1273;128938;-63
2024/01/28 03:28:43;;;;;;;13.70;3.50;;;;;;;3.59;78.28;102234.10;129847;1259;114717;-63
2024/01/28 03:31:46;;;;;;;10.70;3.60;;;;;;;3.51;78.19;102237.56;129885;1254;114745;-63
2024/01/28 03:34:48;;;;;;;8.90;3.40;;;;;;;3.42;78.19;102245.05;129666;1254;114864;-63
2024/01/28 03:37:50;;;;;;;8.90;3.00;;;;;;;3.34;78.24;102248.86;129947;1257;114804;-62
2024/01/28 03:40:52;;;;;;;8.20;2.80;;;;;;;3.29;78.28;102251.44;129906;1253;114782;-62
2024/01/28 03:43:54;;;;;;;10.00;2.60;;;;;;;3.23;78.39;102253.83;129534;1277;114890;-65
2024/01/28 03:46:57;;;;;;;10.00;2.70;;;;;;;3.17;78.54;102262.42;129835;1277;114699;-64
2024/01/28 03:49:59;;;;;;;9.10;2.70;;;;;;;3.13;78.88;102267.48;129973;1277;114754;-65
2024/01/28 03:53:04;;;;;;;6.60;2.90;;;;;;;3.09;78.80;102271.49;130024;1257;114754;-62
2024/01/28 03:56:06;;;;;;;9.30;3.10;;;;;;;3.06;78.86;102278.68;129891;1277;115142;-62
2024/01/28 03:59:08;;;;;;;11.00;3.20;;;;;;;3.03;79.08;102282.19;129893;1254;114720;-62
2024/01/28 04:02:10;;;;;;;9.60;3.00;;;;;;;3.02;79.16;102279.16;129898;1260;114730;-62
2024/01/28 04:05:12;;;;;;;8.50;3.70;;;;;;;3.01;79.14;102275.27;129882;1257;114767;-62
2024/01/28 04:08:14;;;;;;;11.10;3.60;;;;;;;3.00;79.40;102277.20;129850;1254;114792;-63
2024/01/28 04:11:16;;;;;;;11.80;3.70;;;;;;;3.00;79.41;102273.14;129973;1253;114712;-62
2024/01/28 04:14:18;;;;;;;7.40;2.90;;;;;;;2.99;79.50;102267.30;129967;1254;114709;-63
2024/01/28 04:17:20;;;;;;;12.40;3.90;;;;;;;2.96;79.47;102275.21;129854;1277;114795;-62
2024/01/28 04:20:22;;;;;;;12.40;4.40;;;;;;;2.93;79.63;102279.56;129938;1253;114782;-63
2024/01/28 04:23:24;;;;;;;13.80;4.00;;;;;;;2.91;79.62;102276.88;129552;1264;114732;-63
2024/01/28 04:26:27;;;;;;;11.20;3.80;;;;;;;2.89;79.84;102282.33;129842;1257;114728;-63
2024/01/28 04:29:29;;;;;;;10.20;4.00;;;;;;;2.89;79.87;102289.58;129881;1254;114785;-63
2024/01/28 04:32:31;;;;;;;15.30;5.40;;;;;;;2.88;80.01;102291.69;129965;1257;114691;-63
2024/01/28 04:35:33;;;;;;;6.90;3.60;;;;;;;2.88;80.10;102298.91;129545;1271;114684;-63
2024/01/28 04:38:35;;;;;;;7.60;2.60;;;;;;;2.88;80.29;102293.98;129864;1269;114683;-62
2024/01/28 04:41:37;;;;;;;12.30;3.60;;;;;;;2.91;80.37;102294.70;130069;1257;115657;-62
2024/01/28 04:44:39;;;;;;;16.70;3.10;;;;;;;2.93;80.54;102299.15;129863;1277;115088;-62
2024/01/28 04:47:41;;;;;;;11.20;3.40;;;;;;;2.95;80.80;102304.14;129835;1253;114698;-62
2024/01/28 04:50:43;;;;;;;10.90;4.00;;;;;;;2.98;80.64;102306.64;129896;1257;114797;-62
2024/01/28 04:53:45;;;;;;;9.70;3.50;;;;;;;3.00;80.80;102306.85;129810;1254;129025;-62
2024/01/28 04:56:47;;;;;;;13.10;3.10;;;;;;;3.03;80.84;102312.90;129528;1257;115287;-62
2024/01/28 04:59:49;;;;;;;10.20;3.80;;;;;;;3.07;81.03;102317.36;130023;1257;116350;-62
2024/01/28 05:02:55;;;;;;;15.50;4.00;;;;;;;3.10;80.82;102317.05;129503;1263;114849;-62
2024/01/28 05:05:59;;;;;;;11.50;3.80;;;;;;;3.13;81.15;102322.40;130028;1257;115135;-62
2024/01/28 05:09:03;;;;;;;9.90;3.70;;;;;;;3.15;81.11;102325.42;129908;1257;114757;-62
2024/01/28 05:12:05;;;;;;;13.70;4.00;;;;;;;3.17;81.03;102326.69;129914;1277;128830;-62
2024/01/28 05:15:08;;;;;;;13.30;3.30;;;;;;;3.19;81.09;102330.24;129902;1254;114692;-62
2024/01/28 05:18:11;;;;;;;11.30;4.10;;;;;;;3.21;81.05;102330.98;129914;1256;114748;-62
2024/01/28 05:21:13;;;;;;;9.80;3.60;;;;;;;3.23;81.10;102328.70;129987;1258;114824;-62
2024/01/28 05:24:15;;;;;;;13.70;4.40;;;;;;;3.25;81.14;102331.73;129908;1259;114739;-62
2024/01/28 05:27:17;;;;;;;13.70;5.30;;;;;;;3.26;81.18;102329.98;129965;1259;114814;-62
2024/01/28 05:30:19;;;;;;;12.00;4.50;;;;;;;3.29;81.08;102327.73;129973;1257;115106;-62
2024/01/28 05:33:21;;;;;;;13.60;4.40;;;;;;;3.30;81.17;102325.27;129743;1277;128560;-62
2024/01/28 05:36:23;;;;;;;8.70;4.20;;;;;;;3.31;81.15;102325.98;129886;1259;114689;-61
2024/01/28 05:39:25;;;;;;;12.00;3.80;;;;;;;3.30;81.08;102330.21;130043;1257;114815;-62
2024/01/28 05:42:27;;;;;;;18.30;5.00;;;;;;;3.29;80.97;102326.84;129941;1256;114725;-61
2024/01/28 05:45:29;;;;;;;14.40;4.70;;;;;;;3.27;80.83;102330.17;130023;1259;114716;-63
2024/01/28 05:48:33;;;;;;;13.70;5.50;;;;;;;3.26;81.08;102330.68;130040;1277;114869;-61
2024/01/28 05:51:39;;;;;;;16.00;5.90;;;;;;;3.26;81.00;102331.73;129650;1255;114685;-62
2024/01/28 05:54:43;;;;;;;;;;;;;;;3.25;80.92;102334.73;129541;1278;128503;-62
2024/01/28 05:57:46;;;;;;;13.70;4.50;;;;;;;3.23;81.03;102337.17;129604;1257;114843;-61
2024/01/28 06:00:48;;;;;;;12.00;4.50;;;;;;;3.20;81.07;102339.27;129955;1256;114675;-62
2024/01/28 06:03:50;;;;;;;14.90;5.00;;;;;;;3.19;81.11;102343.14;130115;1259;114686;-62
2024/01/28 06:06:52;;;;;;;19.60;5.00;;;;;;;3.20;81.13;102347.21;129776;1270;115155;-62
2024/01/28 06:09:55;;;;;;;13.30;4.50;;;;;;;3.21;81.22;102348.99;129772;1259;114709;-63
2024/01/28 06:12:57;;;;;;;11.80;4.40;;;;;;;3.23;81.27;102349.18;130085;1259;115268;-62
2024/01/28 06:15:59;;;;;;;15.30;4.90;;;;;;;3.24;81.30;102350.61;129884;1277;129430;-63
2024/01/28 06:19:01;;;;;;;14.60;4.60;;;;;;;3.26;81.40;102350.11;129903;1260;114757;-63
2024/01/28 06:22:03;;;;;;;16.60;5.30;;;;;;;3.28;81.32;102348.20;130010;1255;114713;-63
2024/01/28 06:25:07;;;;;;;16.10;5.40;;;;;;;3.29;81.38;102348.04;129966;1254;114760;-63
2024/01/28 06:28:09;;;;;;;12.40;4.20;;;;;;;3.31;81.42;102348.25;130025;1253;114684;-62
2024/01/28 06:31:14;;;;;;;16.30;5.20;;;;;;;3.32;81.32;102348.06;129895;1257;115256;-63
2024/01/28 06:34:16;;;;;;;16.00;5.80;;;;;;;3.32;81.32;102351.60;129984;1277;128290;-63
2024/01/28 06:37:19;;;;;;;12.90;4.50;;;;;;;3.33;81.34;102353.39;129851;1259;114708;-62
2024/01/28 06:40:21;;;;;;;10.70;4.30;;;;;;;3.33;81.34;102360.28;130021;1257;115273;-63
2024/01/28 06:43:26;;;;;;;14.50;6.30;;;;;;;3.34;81.36;102365.59;129386;1259;114701;-63
2024/01/28 06:46:28;;;;;;;18.40;6.40;;;;;;;3.36;81.47;102363.48;129574;1257;114675;-62
2024/01/28 06:49:30;;;;;;;12.30;5.10;;;;;;;3.36;81.35;102361.03;129687;1260;115130;-63
2024/01/28 06:52:32;;;;;;;9.00;4.30;;;;;;;3.38;81.45;102358.94;129951;1259;114771;-62
2024/01/28 06:55:35;;;;;;;14.80;5.40;;;;;;;3.39;81.45;102360.71;129962;1277;129207;-63
2024/01/28 06:58:37;;;;;;;16.70;5.00;;;;;;;3.42;81.55;102365.16;129935;1274;114792;-62
2024/01/28 07:01:39;;;;;;;15.00;5.00;;;;;;;3.44;81.37;102367.67;129978;1277;115068;-63
2024/01/28 07:04:42;;;;;;;11.20;4.90;;;;;;;3.45;81.41;102371.04;129972;1259;114872;-62
2024/01/28 07:07:44;;;;;;;14.80;7.10;;;;;;;3.47;81.41;102369.83;129935;1260;114689;-63
2024/01/28 07:10:47;;;;;;;15.60;6.80;;;;;;;3.48;81.44;102370.20;129966;1254;114758;-62
2024/01/28 07:13:49;;;;;;;11.80;4.30;;;;;;;3.50;81.45;102373.04;130011;1258;115138;-63
2024/01/28 07:16:51;;;;;;;18.20;5.50;;;;;;;3.53;81.43;102376.63;129955;1277;128381;-62
2024/01/28 07:19:53;;;;;;;16.40;4.70;;;;;;;3.56;81.34;102371.52;129551;1277;116037;-62
2024/01/28 07:22:55;;;;;;;15.10;5.40;;;;;;;3.60;81.46;102362.22;130055;1257;115278;-63
2024/01/28 07:25:58;;;;;;;15.70;5.70;;;;;;;3.64;81.44;102367.74;129687;1261;114790;-63
2024/01/28 07:29:00;;;;;;;16.30;4.70;;;;;;;3.68;81.37;102365.85;130022;1257;114681;-63
2024/01/28 07:32:02;;;;;;;15.30;5.00;;;;;;;3.72;81.18;102366.95;130014;1257;114694;-62
2024/01/28 07:35:05;;;;;;;15.40;5.00;;;;;;;3.75;81.44;102371.40;130030;1263;115520;-63
2024/01/28 07:38:11;;;;;;;13.00;4.30;;;;;;;3.80;81.25;102373.06;130106;1253;128897;-63
2024/01/28 07:41:16;;;;;;;12.80;4.30;;;;;;;3.86;81.36;102380.55;129698;1257;116486;-63
2024/01/28 07:44:18;;;;;;;13.00;5.10;;;;;;;3.91;81.15;102384.15;130144;1253;114672;-63
2024/01/28 07:47:20;;;;;;;16.70;5.10;;;;;;;3.99;81.32;102389.20;129974;1257;114824;-63
2024/01/28 07:50:22;;;;;;;14.60;4.10;;;;;;;4.07;81.22;102390.70;129976;1258;114709;-62
2024/01/28 07:53:25;;;;;;;17.20;5.90;;;;;;;4.14;81.45;102393.98;130007;1259;114780;-63
2024/01/28 07:56:27;;;;;;;81.90;25.80;;;;;;;4.23;81.39;102392.82;129940;1260;114724;-63
2024/01/28 07:59:29;;;;;;;88.40;33.30;;;;;;;4.32;81.29;102393.45;129922;1253;114691;-62
2024/01/28 08:02:31;;;;;;;62.20;25.70;;;;;;;4.41;81.28;102399.02;129929;1253;114730;-63
2024/01/28 08:05:33;;;;;;;19.10;6.90;;;;;;;4.49;80.98;102400.52;129978;1253;114710;-63
2024/01/28 08:08:35;;;;;;;34.30;12.00;;;;;;;4.56;80.80;102397.58;129970;1254;115266;-63
2024/01/28 08:11:38;;;;;;;17.50;5.50;;;;;;;4.66;80.86;102395.36;129933;1253;114705;-62
2024/01/28 08:14:40;;;;;;;21.20;5.20;;;;;;;4.76;80.91;102393.86;130000;1262;114844;-63
2024/01/28 08:17:44;;;;;;;39.90;15.70;;;;;;;4.86;80.81;102392.70;130069;1259;114783;-63
2024/01/28 08:20:46;;;;;;;32.60;11.70;;;;;;;4.94;80.55;102394.35;130102;1259;114869;-62
2024/01/28 08:23:48;;;;;;;33.60;11.70;;;;;;;5.03;80.43;102399.02;129991;1277;115265;-62
2024/01/28 08:26:50;;;;;;;26.50;11.40;;;;;;;5.10;80.26;102397.11;129991;1277;114762;-63
2024/01/28 08:29:52;;;;;;;24.20;11.40;;;;;;;5.14;79.95;102400.34;129979;1254;114737;-63
2024/01/28 08:32:54;;;;;;;21.00;8.30;;;;;;;5.19;80.15;102400.73;129936;1257;114767;-62
2024/01/28 08:35:57;;;;;;;16.60;7.30;;;;;;;5.27;79.90;102403.45;130079;1254;114712;-62
2024/01/28 08:39:00;;;;;;;28.30;8.70;;;;;;;5.35;79.59;102402.25;129880;1272;128435;-63
2024/01/28 08:42:02;;;;;;;23.10;7.60;;;;;;;5.36;79.46;102402.08;130040;1273;114684;-63
2024/01/28 08:45:05;;;;;;;40.30;17.10;;;;;;;5.41;79.50;102403.34;129865;1259;115318;-63
2024/01/28 08:48:07;;;;;;;23.20;7.50;;;;;;;5.45;79.30;102407.63;129990;1259;114717;-63
2024/01/28 08:51:09;;;;;;;18.80;5.90;;;;;;;5.48;79.05;102408.71;129903;1277;114692;-62
2024/01/28 08:54:14;;;;;;;24.50;7.30;;;;;;;5.45;78.87;102406.39;129844;1260;115089;-63
2024/01/28 08:57:18;;;;;;;27.50;8.50;;;;;;;5.45;78.81;102402.85;129753;1254;128779;-63
2024/01/28 09:00:21;;;;;;;18.50;4.90;;;;;;;5.48;78.79;102399.66;130130;1253;114789;-62
2024/01/28 09:03:23;;;;;;;12.90;4.90;;;;;;;5.52;78.77;102405.71;129929;1259;114694;-62
2024/01/28 09:06:25;;;;;;;18.90;4.70;;;;;;;5.53;78.58;102410.16;130060;1259;114683;-63
2024/01/28 09:09:28;;;;;;;17.20;4.50;;;;;;;5.58;78.82;102414.61;130070;1267;114680;-63
2024/01/28 09:12:31;;;;;;;12.90;4.30;;;;;;;5.61;78.40;102416.40;130037;1260;115093;-63
2024/01/28 09:15:33;;;;;;;17.00;5.60;;;;;;;5.66;78.68;102417.31;129948;1259;114706;-63
2024/01/28 09:18:35;;;;;;;15.80;5.20;;;;;;;5.71;78.49;102418.59;130058;1277;114701;-63
2024/01/28 09:21:37;;;;;;;16.80;6.10;;;;;;;5.77;78.46;102421.45;130138;1258;115177;-63
2024/01/28 09:24:39;;;;;;;19.20;5.40;;;;;;;5.82;78.26;102425.71;129980;1257;114789;-63
2024/01/28 09:27:42;;;;;;;14.30;4.80;;;;;;;5.87;78.24;102420.08;129964;1259;115297;-62
2024/01/28 09:30:45;;;;;;;20.70;5.10;;;;;;;5.92;78.14;102429.14;130021;1275;114782;-63
2024/01/28 09:33:47;;;;;;;15.80;5.50;;;;;;;5.97;78.14;102431.46;130064;1258;114724;-62
2024/01/28 09:36:49;;;;;;;19.00;5.30;;;;;;;6.02;78.12;102432.05;129816;1272;114732;-62
2024/01/28 09:39:51;;;;;;;14.60;5.70;;;;;;;6.08;78.01;102431.19;130055;1277;128031;-62
2024/01/28 09:43:15;;;;;;;21.30;4.90;;;;;;;6.11;77.68;102428.00;129925;1259;115036;-62
2024/01/28 09:46:18;;;;;;;17.80;6.40;;;;;;;6.09;77.55;102425.87;129930;1260;114778;-63
2024/01/28 09:49:21;;;;;;;17.10;5.90;;;;;;;6.13;77.70;102428.36;130210;1258;114760;-61
2024/01/28 09:52:23;;;;;;;15.80;5.50;;;;;;;6.21;77.64;102427.67;130111;1254;114805;-61
2024/01/28 09:55:25;;;;;;;15.10;4.90;;;;;;;6.26;77.52;102422.36;129682;1254;115382;-63
2024/01/28 09:58:27;;;;;;;15.40;5.30;;;;;;;6.30;77.36;102421.66;129983;1277;128882;-62
2024/01/28 10:01:30;;;;;;;18.90;4.70;;;;;;;6.32;77.47;102417.23;130023;1275;115218;-62
2024/01/28 10:04:34;;;;;;;15.40;5.40;;;;;;;6.37;77.30;102418.49;130109;1257;114706;-63
2024/01/28 10:07:44;;;;;;;17.00;5.10;;;;;;;6.43;77.34;102419.21;129829;1257;114778;-64
2024/01/28 10:10:46;;;;;;;18.80;4.90;;;;;;;6.48;77.20;102423.30;129759;1256;114798;-64
2024/01/28 10:13:49;;;;;;;14.20;4.10;;;;;;;6.51;77.19;102413.37;130004;1259;114732;-64
2024/01/28 10:16:51;;;;;;;13.10;4.40;;;;;;;6.56;77.11;102405.92;129836;1259;114800;-64
2024/01/28 10:19:53;;;;;;;14.30;5.10;;;;;;;6.59;77.05;102405.21;130009;1259;114701;-64
2024/01/28 10:22:55;;;;;;;14.70;4.90;;;;;;;6.64;77.11;102409.66;129739;1258;114747;-64
2024/01/28 10:26:00;;;;;;;16.50;4.90;;;;;;;6.71;77.27;102412.50;129801;1259;114739;-63
2024/01/28 10:29:02;;;;;;;18.90;5.20;;;;;;;6.75;77.02;102412.34;129755;1259;115403;-63
2024/01/28 10:32:05;;;;;;;12.40;4.90;;;;;;;6.78;76.92;102406.30;129797;1256;114728;-63
2024/01/28 10:35:11;;;;;;;20.00;6.10;;;;;;;6.81;76.59;102404.86;129876;1262;114806;-65
2024/01/28 10:38:16;;;;;;;12.30;6.10;;;;;;;6.82;76.51;102404.69;129792;1259;114889;-63
2024/01/28 10:41:18;;;;;;;16.80;5.70;;;;;;;6.78;76.05;102405.94;129843;1256;114802;-63
2024/01/28 10:44:21;;;;;;;18.50;6.20;;;;;;;6.75;76.10;102409.13;129972;1259;114697;-63
2024/01/28 10:47:25;;;;;;;19.20;5.80;;;;;;;6.70;75.91;102406.99;129873;1257;115338;-63
2024/01/28 10:50:32;;;;;;;17.20;5.50;;;;;;;6.71;76.11;102407.00;129969;1259;115141;-63
2024/01/28 10:53:37;;;;;;;19.70;4.30;;;;;;;6.73;76.07;102403.98;129626;1257;114885;-63
2024/01/28 10:56:40;;;;;;;15.50;5.90;;;;;;;6.73;75.80;102398.82;129867;1257;115259;-63
2024/01/28 10:59:42;;;;;;;16.30;5.50;;;;;;;6.73;75.72;102404.14;129690;1259;115594;-63
2024/01/28 11:02:45;;;;;;;16.00;5.40;;;;;;;6.70;75.89;102405.76;129820;1257;115144;-63
2024/01/28 11:05:47;;;;;;;19.10;5.20;;;;;;;6.69;75.66;102405.05;130042;1259;114799;-63
2024/01/28 11:08:49;;;;;;;17.40;5.00;;;;;;;6.69;75.61;102404.69;129635;1254;115098;-63
2024/01/28 11:11:51;;;;;;;17.00;4.70;;;;;;;6.70;75.76;102404.52;129745;1267;239429;-63
2024/01/28 11:14:57;;;;;;;13.40;5.30;;;;;;;6.70;75.53;102403.27;129894;1261;114769;-63
2024/01/28 11:18:01;;;;;;;20.70;5.40;;;;;;;6.70;75.46;102403.45;129940;1261;115392;-63
2024/01/28 11:21:11;;;;;;;18.30;5.70;;;;;;;6.70;75.38;102398.48;129813;1260;114776;-63
2024/01/28 11:24:14;;;;;;;17.00;4.80;;;;;;;6.71;75.40;102386.40;129667;1254;128354;-64
2024/01/28 11:27:19;;;;;;;14.50;4.80;;;;;;;6.69;75.21;102380.36;130186;1259;114748;-64
2024/01/28 11:30:25;;;;;;;16.40;4.10;;;;;;;6.71;75.15;102384.44;129915;1259;114795;-64
2024/01/28 11:33:34;;;;;;;16.10;4.60;;;;;;;6.73;75.15;102381.42;129942;1267;114838;-63
2024/01/28 11:36:38;;;;;;;16.80;5.00;;;;;;;6.75;75.14;102376.45;129640;1264;114780;-64
2024/01/28 11:39:46;;;;;;;15.20;5.10;;;;;;;6.77;75.08;102374.50;129651;1269;128212;-62
2024/01/28 11:42:53;;;;;;;20.40;4.60;;;;;;;6.78;74.72;102371.14;129806;1260;116602;-64
2024/01/28 11:45:55;;;;;;;15.40;4.60;;;;;;;6.75;74.87;102363.84;130092;1258;114788;-63
2024/01/28 11:48:57;;;;;;;16.60;4.00;;;;;;;6.71;74.54;102356.56;130020;1259;114791;-64
2024/01/28 11:51:59;;;;;;;16.00;4.80;;;;;;;6.73;74.71;102357.27;129902;1255;114794;-63
2024/01/28 11:55:15;;;;;;;12.10;4.60;;;;;;;6.76;74.76;102352.84;129673;1254;114703;-64
2024/01/28 11:58:19;;;;;;;18.60;6.80;;;;;;;6.78;74.58;102349.10;129860;1260;128429;-64
2024/01/28 12:01:24;;;;;;;13.10;4.30;;;;;;;6.82;74.91;102341.82;129897;1262;114702;-65
2024/01/28 12:04:26;;;;;;;12.40;4.70;;;;;;;6.84;74.18;102338.27;130122;1253;114750;-66
2024/01/28 12:07:30;;;;;;;16.90;7.60;;;;;;;6.88;74.13;102333.46;129913;1259;114805;-65
2024/01/28 12:10:32;;;;;;;27.30;13.50;;;;;;;6.91;74.19;102333.45;130198;1273;114758;-66
2024/01/28 12:13:35;;;;;;;18.10;6.30;;;;;;;6.96;74.12;102327.59;130008;1268;114806;-64
2024/01/28 12:16:37;;;;;;;14.30;5.10;;;;;;;7.03;73.99;102322.60;130036;1276;114703;-64
2024/01/28 12:19:39;;;;;;;10.00;4.10;;;;;;;7.11;73.85;102321.69;130153;1276;114859;-66
2024/01/28 12:22:44;;;;;;;14.80;5.80;;;;;;;7.20;73.71;102322.20;130143;1256;115077;-64
2024/01/28 12:25:46;;;;;;;21.30;11.00;;;;;;;7.29;73.59;102316.67;129616;1260;114830;-64
2024/01/28 12:28:49;;;;;;;18.60;5.80;;;;;;;7.39;73.57;102319.66;129965;1254;115304;-64
2024/01/28 12:31:51;;;;;;;13.50;4.40;;;;;;;7.49;73.55;102310.91;130007;1275;114636;-63
2024/01/28 12:34:56;;;;;;;14.60;5.40;;;;;;;7.55;72.87;102304.48;130050;1275;115993;-65
2024/01/28 12:37:58;;;;;;;16.80;5.30;;;;;;;7.62;72.97;102305.15;130087;1259;114731;-63
2024/01/28 12:41:00;;;;;;;12.30;4.70;;;;;;;7.64;72.61;102304.80;130025;1260;114829;-63
2024/01/28 12:44:03;;;;;;;16.30;5.00;;;;;;;7.66;72.61;102308.34;130000;1258;115379;-64
2024/01/28 12:47:06;;;;;;;9.20;3.80;;;;;;;7.69;72.21;102307.08;130151;1260;114723;-64
2024/01/28 12:50:09;;;;;;;18.80;7.50;;;;;;;7.68;71.98;102307.62;129668;1265;114880;-63
2024/01/28 12:53:11;;;;;;;14.30;3.60;;;;;;;7.66;71.93;102307.80;129703;1277;127720;-64
2024/01/28 12:56:14;;;;;;;15.60;5.00;;;;;;;7.61;71.87;102301.44;129867;1278;114706;-65
2024/01/28 12:59:19;;;;;;;16.80;5.40;;;;;;;7.58;71.68;102299.84;129885;1269;114727;-65
2024/01/28 13:02:30;;;;;;;20.10;10.10;;;;;;;7.51;71.87;102296.33;129962;1258;114701;-64
2024/01/28 13:05:43;;;;;;;11.00;4.30;;;;;;;7.42;71.80;102295.64;129898;1259;114985;-63
2024/01/28 13:08:53;;;;;;;9.20;4.00;;;;;;;7.38;71.40;102299.57;129892;1271;128581;-62
2024/01/28 13:12:01;;;;;;;11.30;5.10;;;;;;;7.38;71.72;102296.20;129536;1274;115186;-71
2024/01/28 13:15:07;;;;;;;16.80;5.90;;;;;;;7.45;71.24;102295.45;129828;1272;114975;-72
2024/01/28 13:18:09;;;;;;;10.10;3.40;;;;;;;7.54;71.19;102292.39;129913;1264;114766;-72
2024/01/28 13:21:11;;;;;;;11.80;5.70;;;;;;;7.65;70.76;102286.84;130197;1267;114705;-73
2024/01/28 13:24:13;;;;;;;11.70;3.20;;;;;;;7.77;70.85;102290.33;130345;1254;114718;-74
2024/01/28 13:27:14;;;;;;;11.50;5.20;;;;;;;7.90;70.91;102288.80;129992;1260;128058;-73
2024/01/28 13:30:16;;;;;;;13.90;5.10;;;;;;;8.06;71.12;102284.45;130289;1270;114721;-73
2024/01/28 13:33:18;;;;;;;10.70;5.20;;;;;;;8.17;70.62;102282.40;130327;1259;114853;-73
2024/01/28 13:36:20;;;;;;;17.20;6.00;;;;;;;8.23;70.46;102280.22;130081;1265;115089;-75
2024/01/28 13:39:22;;;;;;;23.50;10.60;;;;;;;8.26;70.19;102283.23;130221;1276;114706;-73
2024/01/28 13:42:24;;;;;;;10.10;5.70;;;;;;;8.26;69.81;102278.60;130356;1260;114699;-72
2024/01/28 13:45:26;;;;;;;16.60;7.50;;;;;;;8.20;69.76;102273.30;130353;1260;114858;-72
2024/01/28 13:48:28;;;;;;;11.00;2.80;;;;;;;8.13;69.40;102269.79;130326;1259;114761;-62
2024/01/28 13:51:31;;;;;;;12.10;2.80;;;;;;;8.05;68.99;102269.49;129945;1259;114709;-63